Time;durP1;ratioP1;P1;durP2;ratioP2;P2;SDS_P1;SDS_P2;PMS_P1;PMS_P2;Temp;Humidity;BMP_temperature;BMP_pressure;BME280_temperature;BME280_humidity;BME280_pressure;Samples;Min_cycle;Max_cycle;Signal;HPM_P1;HPM_P2
2023/09/15 00:01:11;;;;;;;;;;;;;;;;;;;;;
2023/09/15 00:04:26;;;;;;;;;;;;;;;;;;;;;
2023/09/15 00:07:07;;;;;;;10.80;4.65;;;14.40;99.90;;;;;;4854499;29;20128;-90
2023/09/15 00:13:15;;;;;;;13.73;4.13;;;14.40;99.90;;;;;;4855392;29;20041;-91
2023/09/15 00:15:50;;;;;;;11.18;4.07;;;14.40;99.90;;;;;;4853131;29;20033;-91
2023/09/15 00:18:29;;;;;;;9.40;4.40;;;14.40;99.90;;;;;;4852918;29;20409;-90
2023/09/15 00:21:26;;;;;;;9.15;4.32;;;14.30;99.90;;;;;;4859956;29;20033;-89
2023/09/15 00:24:14;;;;;;;12.60;4.07;;;14.30;99.90;;;;;;4842333;29;20041;-90
2023/09/15 00:27:09;;;;;;;;;;;;;;;;;;;;;
2023/09/15 00:29:56;;;;;;;8.98;4.47;;;14.30;99.90;;;;;;4842540;29;20060;-90
2023/09/15 00:32:39;;;;;;;11.57;4.50;;;14.20;99.90;;;;;;4837321;29;20041;-91
2023/09/15 00:35:56;;;;;;;10.05;3.97;;;14.20;99.90;;;;;;4831187;29;20141;-91
2023/09/15 00:39:14;;;;;;;;;;;;;;;;;;;;;
2023/09/15 00:41:59;;;;;;;10.50;4.10;;;14.20;99.90;;;;;;4867912;29;20041;-90
2023/09/15 00:45:05;;;;;;;10.32;4.32;;;14.10;99.90;;;;;;4853992;29;20041;-90
2023/09/15 00:48:31;;;;;;;8.85;4.15;;;14.10;99.90;;;;;;4858902;29;20071;-90
2023/09/15 00:51:25;;;;;;;11.63;4.45;;;14.10;99.90;;;;;;4874400;29;20029;-91
2023/09/15 00:54:30;;;;;;;11.00;4.38;;;14.10;99.90;;;;;;4874658;29;20041;-91
2023/09/15 00:57:30;;;;;;;11.45;4.60;;;14.10;99.90;;;;;;4850110;29;20067;-90
2023/09/15 01:00:30;;;;;;;12.90;4.88;;;14.10;99.90;;;;;;4861771;29;20049;-91
2023/09/15 01:03:30;;;;;;;;;;;;;;;;;;;;;
2023/09/15 01:06:23;;;;;;;9.35;4.10;;;14.00;99.90;;;;;;4874817;29;20036;-90
2023/09/15 01:09:11;;;;;;;8.65;4.25;;;14.00;99.90;;;;;;4874922;29;20417;-90
2023/09/15 01:13:02;;;;;;;12.40;4.13;;;14.00;99.90;;;;;;4845102;29;20306;-94
2023/09/15 01:16:29;;;;;;;10.82;4.35;;;14.00;99.90;;;;;;4862092;29;20040;-89
2023/09/15 01:19:13;;;;;;;13.05;4.70;;;14.00;99.90;;;;;;4787409;29;20042;-91
2023/09/15 01:22:08;;;;;;;9.00;4.20;;;14.00;99.90;;;;;;4778453;29;20327;-90
2023/09/15 01:25:43;;;;;;;12.80;4.72;;;14.00;99.90;;;;;;4844022;29;20102;-90
2023/09/15 01:28:49;;;;;;;9.63;4.40;;;13.90;99.90;;;;;;4858374;29;20064;-90
2023/09/15 01:31:18;;;;;;;10.48;4.15;;;13.90;99.90;;;;;;4857784;29;20045;-90
2023/09/15 01:33:47;;;;;;;15.00;4.63;;;13.90;99.90;;;;;;4839986;29;20044;-90
2023/09/15 01:37:04;;;;;;;10.32;4.60;;;13.90;99.90;;;;;;4845602;29;20437;-90
2023/09/15 01:40:04;;;;;;;12.45;4.25;;;13.90;99.90;;;;;;4846556;29;20065;-90
2023/09/15 01:42:55;;;;;;;;;;;;;;;;;;;;;
2023/09/15 01:45:33;;;;;;;11.25;4.38;;;13.80;99.90;;;;;;4873540;29;20044;-91
2023/09/15 01:48:45;;;;;;;;;;;;;;;;;;;;;
2023/09/15 01:51:35;;;;;;;13.57;5.38;;;13.80;99.90;;;;;;4848129;29;20071;-90
2023/09/15 01:58:22;;;;;;;;;;;;;;;;;;;;;
2023/09/15 02:01:19;;;;;;;;;;;;;;;;;;;;;
2023/09/15 02:04:04;;;;;;;11.68;5.00;;;13.70;99.90;;;;;;4857267;29;20079;-89
2023/09/15 02:06:53;;;;;;;10.20;4.32;;;13.60;99.90;;;;;;4822728;29;20073;-90
2023/09/15 02:10:02;;;;;;;11.25;5.00;;;13.60;99.90;;;;;;4844536;29;20085;-90
2023/09/15 02:12:59;;;;;;;;;;;;;;;;;;;;;
2023/09/15 02:15:43;;;;;;;8.95;4.65;;;13.50;99.90;;;;;;4857981;29;20045;-90
2023/09/15 02:18:40;;;;;;;8.88;4.65;;;13.50;99.90;;;;;;4888907;29;20040;-90
2023/09/15 02:21:36;;;;;;;8.13;4.53;;;13.50;99.90;;;;;;4825787;29;20041;-89
2023/09/15 02:24:37;;;;;;;17.92;5.50;;;13.50;99.90;;;;;;4840358;29;20037;-91
2023/09/15 02:27:14;;;;;;;13.10;4.95;;;13.50;99.90;;;;;;4839613;29;20123;-91
2023/09/15 02:30:46;;;;;;;12.75;4.72;;;13.50;99.90;;;;;;4841556;29;20041;-90
2023/09/15 02:33:40;;;;;;;12.80;5.28;;;13.50;99.90;;;;;;4829852;29;20105;-90
2023/09/15 02:37:03;;;;;;;9.07;4.55;;;13.40;99.90;;;;;;4845708;29;20045;-90
2023/09/15 02:39:45;;;;;;;12.48;4.50;;;13.40;99.90;;;;;;4845261;29;20044;-91
2023/09/15 02:43:02;;;;;;;11.68;4.95;;;13.40;99.90;;;;;;4868194;29;20053;-90
2023/09/15 02:45:41;;;;;;;11.07;5.05;;;13.30;99.90;;;;;;4855602;29;20043;-91
2023/09/15 02:48:31;;;;;;;;;;;;;;;;;;;;;
2023/09/15 02:51:25;;;;;;;14.40;4.95;;;13.40;99.90;;;;;;4856165;29;20040;-90
2023/09/15 02:54:02;;;;;;;10.23;4.65;;;13.40;99.90;;;;;;4869800;29;20092;-89
2023/09/15 02:56:51;;;;;;;;;;;;;;;;;;;;;
2023/09/15 02:59:22;;;;;;;14.00;5.65;;;13.30;99.90;;;;;;4856187;29;20033;-90
2023/09/15 03:02:12;;;;;;;8.18;4.53;;;13.30;99.90;;;;;;4870868;29;20072;-89
2023/09/15 03:05:01;;;;;;;8.90;4.75;;;13.30;99.90;;;;;;4872556;29;20041;-90
2023/09/15 03:07:55;;;;;;;9.95;4.97;;;13.30;99.90;;;;;;4856530;29;20037;-90
2023/09/15 03:10:43;;;;;;;12.63;4.93;;;13.30;99.90;;;;;;4857904;29;20430;-90
2023/09/15 03:13:52;;;;;;;11.57;4.32;;;13.30;99.90;;;;;;4872782;29;20053;-91
2023/09/15 03:16:29;;;;;;;12.60;4.78;;;13.20;99.90;;;;;;4829364;29;20429;-89
2023/09/15 03:19:23;;;;;;;13.40;5.32;;;13.20;99.90;;;;;;4860301;29;20033;-93
2023/09/15 03:22:14;;;;;;;11.52;4.90;;;13.20;99.90;;;;;;4862074;29;20049;-90
2023/09/15 03:24:46;;;;;;;12.95;4.80;;;13.20;99.90;;;;;;4873050;29;20037;-93
2023/09/15 03:27:38;;;;;;;8.48;4.22;;;13.20;99.90;;;;;;4873981;29;20082;-90
2023/09/15 03:30:35;;;;;;;11.07;5.25;;;13.20;99.90;;;;;;4865444;29;20053;-91
2023/09/15 03:33:25;;;;;;;;;;;;;;;;;;;;;
2023/09/15 03:36:21;;;;;;;10.15;4.85;;;13.10;99.90;;;;;;4860405;29;20400;-89
2023/09/15 03:38:59;;;;;;;11.27;5.15;;;13.20;99.90;;;;;;4848125;29;20408;-91
2023/09/15 03:42:02;;;;;;;;;;;;;;;;;;;;;
2023/09/15 03:45:02;;;;;;;10.25;5.28;;;13.10;99.90;;;;;;4855763;29;20037;-90
2023/09/15 03:47:47;;;;;;;11.98;4.78;;;13.10;99.90;;;;;;4858316;29;20033;-90
2023/09/15 03:50:47;;;;;;;11.27;5.15;;;13.10;99.90;;;;;;4857949;29;20040;-90
2023/09/15 03:53:54;;;;;;;13.38;5.05;;;13.00;99.90;;;;;;4861833;29;20033;-93
2023/09/15 03:56:48;;;;;;;10.25;4.50;;;13.00;99.90;;;;;;4834336;29;20096;-90
2023/09/15 03:59:36;;;;;;;10.05;4.80;;;13.00;99.90;;;;;;4857531;29;20044;-91
2023/09/15 04:02:24;;;;;;;12.30;5.93;;;13.00;99.90;;;;;;4854650;29;20501;-90
2023/09/15 04:08:28;;;;;;;;;;;;;;;;;;;;;
2023/09/15 04:11:07;;;;;;;10.15;4.70;;;12.90;99.90;;;;;;4844684;29;20037;-90
2023/09/15 04:14:05;;;;;;;13.02;5.00;;;12.90;99.90;;;;;;4855187;29;20421;-94
2023/09/15 04:17:04;;;;;;;;;;;;;;;;;;;;;
2023/09/15 04:20:27;;;;;;;;;;;;;;;;;;;;;
2023/09/15 04:23:38;;;;;;;12.32;5.03;;;12.80;99.90;;;;;;4858381;29;20097;-90
2023/09/15 04:26:31;;;;;;;9.75;5.15;;;12.90;99.90;;;;;;4840579;29;20059;-90
2023/09/15 04:29:14;;;;;;;;;;;;;;;;;;;;;
2023/09/15 04:32:15;;;;;;;10.57;5.05;;;12.80;99.90;;;;;;4868583;29;20360;-89
2023/09/15 04:34:58;;;;;;;12.45;5.38;;;12.70;99.90;;;;;;4826782;29;20433;-92
2023/09/15 04:38:10;;;;;;;10.37;4.70;;;12.80;99.90;;;;;;4855592;29;20132;-90
2023/09/15 04:41:20;;;;;;;9.20;4.88;;;12.70;99.90;;;;;;4840732;29;20048;-91
2023/09/15 04:44:11;;;;;;;11.65;4.93;;;12.70;99.90;;;;;;4854558;29;20036;-90
2023/09/15 04:47:23;;;;;;;;;;;;;;;;;;;;;
2023/09/15 04:50:11;;;;;;;11.70;5.00;;;12.70;99.90;;;;;;4842626;29;20037;-91
2023/09/15 04:52:58;;;;;;;;;;;;;;;;;;;;;
2023/09/15 04:56:28;;;;;;;11.17;4.63;;;12.70;99.90;;;;;;4858323;29;20061;-91
2023/09/15 04:59:30;;;;;;;14.57;5.50;;;12.70;99.90;;;;;;4870151;29;20033;-91
2023/09/15 05:02:13;;;;;;;12.50;5.53;;;12.60;99.90;;;;;;4838252;29;20080;-91
2023/09/15 05:05:02;;;;;;;12.93;6.13;;;12.70;99.90;;;;;;4849105;29;20037;-90
2023/09/15 05:08:12;;;;;;;;;;;;;;;;;;;;;
2023/09/15 05:10:42;;;;;;;11.95;5.20;;;12.60;99.90;;;;;;4848904;29;20040;-91
2023/09/15 05:13:29;;;;;;;;;;;;;;;;;;;;;
2023/09/15 05:16:03;;;;;;;15.82;5.97;;;12.70;99.90;;;;;;4849060;29;20061;-91
2023/09/15 05:18:44;;;;;;;14.52;5.72;;;12.70;99.90;;;;;;4849376;29;20094;-89
2023/09/15 05:21:44;;;;;;;13.57;5.47;;;12.60;99.90;;;;;;4814630;29;20033;-91
2023/09/15 05:24:48;;;;;;;11.75;5.72;;;12.60;99.90;;;;;;4838856;29;20345;-90
2023/09/15 05:28:01;;;;;;;11.57;5.75;;;12.70;99.90;;;;;;4864924;29;20041;-91
2023/09/15 05:30:42;;;;;;;12.48;5.90;;;12.60;99.90;;;;;;4808021;29;20121;-90
2023/09/15 05:33:54;;;;;;;10.02;5.40;;;12.60;99.90;;;;;;4822275;29;20140;-90
2023/09/15 05:36:29;;;;;;;19.73;5.53;;;12.60;99.90;;;;;;4838007;29;20084;-89
2023/09/15 05:39:30;;;;;;;;;;;;;;;;;;;;;
2023/09/15 05:45:31;;;;;;;12.90;4.78;;;12.70;99.90;;;;;;4849236;29;20132;-90
2023/09/15 05:48:16;;;;;;;;;;;;;;;;;;;;;
2023/09/15 05:51:07;;;;;;;14.15;5.07;;;12.60;99.90;;;;;;4841309;29;20408;-88
2023/09/15 05:54:36;;;;;;;13.82;5.10;;;12.60;99.90;;;;;;4853331;29;20041;-89
2023/09/15 05:57:12;;;;;;;12.38;5.70;;;12.70;99.90;;;;;;4850684;29;20031;-89
2023/09/15 05:59:56;;;;;;;;;;;;;;;;;;;;;
2023/09/15 06:02:36;;;;;;;13.38;5.03;;;12.70;99.90;;;;;;4850213;29;20056;-89
2023/09/15 06:05:24;;;;;;;;;;;;;;;;;;;;;
2023/09/15 06:08:26;;;;;;;12.50;4.72;;;12.80;99.90;;;;;;4857231;29;20045;-90
2023/09/15 06:11:30;;;;;;;;;;;;;;;;;;;;;
2023/09/15 06:14:08;;;;;;;15.70;5.28;;;12.80;99.90;;;;;;4865827;29;20500;-90
2023/09/15 06:17:05;;;;;;;12.05;5.43;;;12.80;99.90;;;;;;4859421;29;20060;-90
2023/09/15 06:19:56;;;;;;;14.48;5.55;;;12.90;99.90;;;;;;4865465;29;20044;-90
2023/09/15 06:22:38;;;;;;;;;;;;;;;;;;;;;
2023/09/15 06:25:30;;;;;;;11.13;4.63;;;13.00;99.90;;;;;;4865682;29;20055;-90
2023/09/15 06:28:12;;;;;;;12.15;4.95;;;13.00;99.90;;;;;;4839456;29;20378;-90
2023/09/15 06:31:03;;;;;;;14.52;4.75;;;13.00;99.90;;;;;;4840375;29;20064;-92
2023/09/15 06:33:43;;;;;;;16.70;5.05;;;13.10;99.90;;;;;;4851086;29;20097;-90
2023/09/15 06:36:17;;;;;;;13.23;5.13;;;13.20;99.90;;;;;;4848463;29;20652;-89
2023/09/15 06:39:04;;;;;;;12.38;4.70;;;13.20;99.90;;;;;;4855190;29;20037;-89
2023/09/15 06:42:08;;;;;;;;;;;;;;;;;;;;;
2023/09/15 06:44:47;;;;;;;12.13;5.03;;;13.30;99.90;;;;;;4866668;29;20052;-90
2023/09/15 06:47:47;;;;;;;12.55;4.90;;;13.30;99.90;;;;;;4868425;29;20029;-89
2023/09/15 06:50:43;;;;;;;12.73;5.25;;;13.40;99.90;;;;;;4866533;29;20045;-90
2023/09/15 06:53:52;;;;;;;14.13;4.50;;;13.40;99.90;;;;;;4853117;29;20037;-92
2023/09/15 06:56:53;;;;;;;;;;;;;;;;;;;;;
2023/09/15 06:59:39;;;;;;;13.98;5.22;;;13.50;99.90;;;;;;4865644;29;20101;-89
2023/09/15 07:02:06;;;;;;;15.98;5.07;;;13.60;99.90;;;;;;4850385;29;20341;-92
2023/09/15 07:04:55;;;;;;;;;;;;;;;;;;;;;
2023/09/15 07:07:51;;;;;;;12.77;4.57;;;13.60;99.90;;;;;;4866082;29;20068;-89
2023/09/15 07:11:01;;;;;;;;;;;;;;;;;;;;;
2023/09/15 07:13:58;;;;;;;13.15;4.72;;;13.80;99.90;;;;;;4864981;29;20356;-89
2023/09/15 07:16:44;;;;;;;11.05;4.90;;;13.90;99.90;;;;;;4847193;29;20444;-88
2023/09/15 07:19:24;;;;;;;11.63;4.65;;;14.00;99.90;;;;;;4830358;29;20123;-91
2023/09/15 07:22:05;;;;;;;9.85;4.35;;;14.10;99.90;;;;;;4885875;29;20088;-89
2023/09/15 07:24:57;;;;;;;;;;;;;;;;;;;;;
2023/09/15 07:27:31;;;;;;;8.27;4.50;;;14.20;99.90;;;;;;4869036;29;20040;-89
2023/09/15 07:30:36;;;;;;;10.93;4.65;;;14.30;99.90;;;;;;4871997;29;20079;-89
2023/09/15 07:33:31;;;;;;;10.65;4.18;;;14.40;99.90;;;;;;4875591;29;20041;-89
2023/09/15 07:36:04;;;;;;;9.93;4.53;;;14.40;99.90;;;;;;4866305;29;20037;-90
2023/09/15 07:38:58;;;;;;;11.70;4.85;;;14.50;99.90;;;;;;4853111;29;20430;-90
2023/09/15 07:41:50;;;;;;;10.55;4.68;;;14.60;99.90;;;;;;4835130;29;20040;-89
2023/09/15 07:44:49;;;;;;;;;;;;;;;;;;;;;
2023/09/15 07:47:44;;;;;;;10.80;4.40;;;14.70;99.90;;;;;;4864444;29;20140;-91
2023/09/15 07:50:28;;;;;;;13.50;4.35;;;14.80;99.90;;;;;;4866132;29;20025;-90
2023/09/15 07:53:11;;;;;;;12.95;5.80;;;14.90;99.90;;;;;;4866230;29;20044;-90
2023/09/15 07:55:48;;;;;;;9.38;4.10;;;15.00;99.90;;;;;;4849146;29;20033;-89
2023/09/15 07:58:37;;;;;;;;;;;;;;;;;;;;;
2023/09/15 08:01:17;;;;;;;12.35;4.80;;;15.10;99.90;;;;;;4850052;29;20135;-91
2023/09/15 08:04:14;;;;;;;9.18;4.35;;;15.20;99.90;;;;;;4856383;29;20041;-89
2023/09/15 08:07:07;;;;;;;12.75;5.00;;;15.30;99.90;;;;;;4824151;29;20055;-89
2023/09/15 08:09:45;;;;;;;10.57;4.20;;;15.30;99.90;;;;;;4834573;29;20037;-90
2023/09/15 08:12:19;;;;;;;11.00;4.43;;;15.50;99.90;;;;;;4831500;29;20457;-90
2023/09/15 08:15:15;;;;;;;;;;;;;;;;;;;;;
2023/09/15 08:18:13;;;;;;;;;;;;;;;;;;;;;
2023/09/15 08:24:26;;;;;;;8.43;3.88;;;15.80;99.90;;;;;;4851068;29;20052;-90
2023/09/15 08:27:01;;;;;;;9.05;3.58;;;15.90;99.90;;;;;;4839542;29;20052;-90
2023/09/15 08:29:41;;;;;;;9.20;3.78;;;16.00;99.90;;;;;;4867485;29;20543;-90
2023/09/15 08:32:28;;;;;;;9.20;3.63;;;16.10;99.90;;;;;;4867919;29;20044;-90
2023/09/15 08:35:16;;;;;;;9.30;3.72;;;16.20;99.90;;;;;;4854308;29;20108;-91
2023/09/15 08:38:21;;;;;;;37.38;4.85;;;16.30;99.90;;;;;;4853559;29;20045;-90
2023/09/15 08:45:53;;;;;;;;;;;;;;;;;;;;;
2023/09/15 12:36:16;;;;;;;;;;;;;;;;;;;;;
2023/09/15 12:39:20;;;;;;;;;;;21.70;99.90;;;;;;4738775;30;20378;-91
2023/09/15 12:42:17;;;;;;;7.78;3.45;;;21.60;99.90;;;;;;4726925;30;19925;-89
2023/09/15 12:44:56;;;;;;;9.02;3.30;;;21.90;99.90;;;;;;4748972;30;20045;-90
2023/09/15 12:47:45;;;;;;;6.15;2.88;;;21.70;99.90;;;;;;4740960;30;20082;-91
2023/09/15 13:01:48;;;;;;;;;;;;;;;;;;;;;
2023/09/15 13:09:30;;;;;;;;;;;;;;;;;;;;;
2023/09/15 13:16:50;;;;;;;6.25;2.47;;;21.90;99.90;;;;;;4646658;30;20529;-92
2023/09/15 13:20:29;;;;;;;;;;;;;;;;;;;;;
2023/09/15 13:24:11;;;;;;;;;;;;;;;;;;;;;
2023/09/15 13:36:10;;;;;;;;;;;;;;;;;;;;;
2023/09/15 13:47:08;;;;;;;9.13;2.50;;;22.20;99.80;;;;;;4638904;30;20252;-89
2023/09/15 13:49:59;;;;;;;6.95;2.58;;;22.00;99.90;;;;;;4653234;30;20066;-90
2023/09/15 13:53:08;;;;;;;8.40;2.80;;;22.50;99.90;;;;;;4652909;30;20058;-91
2023/09/15 13:55:54;;;;;;;9.85;2.92;;;22.10;99.40;;;;;;4689705;30;20045;-89
2023/09/15 13:58:39;;;;;;;7.95;2.88;;;22.00;99.10;;;;;;4710915;30;20044;-91
2023/09/15 14:01:39;;;;;;;5.50;2.50;;;22.10;98.80;;;;;;4755322;30;20045;-92
2023/09/15 14:04:18;;;;;;;7.38;2.53;;;22.10;98.70;;;;;;4755694;30;20035;-91
2023/09/15 14:07:00;;;;;;;5.45;2.28;;;22.20;99.00;;;;;;4756021;30;20048;-90
2023/09/15 14:17:54;;;;;;;6.78;2.50;;;22.30;98.90;;;;;;4728290;30;20055;-91
2023/09/15 14:21:01;;;;;;;;;;;;;;;;;;;;;
2023/09/15 14:23:37;;;;;;;5.78;2.67;;;22.30;99.00;;;;;;4769450;30;20060;-89
2023/09/15 14:26:34;;;;;;;6.80;2.50;;;22.40;99.60;;;;;;4756176;30;20035;-90
2023/09/15 14:29:22;;;;;;;6.55;2.70;;;22.30;99.90;;;;;;4747735;30;20036;-90
2023/09/15 14:32:00;;;;;;;8.40;2.60;;;22.50;99.40;;;;;;4743635;30;20063;-90
2023/09/15 14:44:08;;;;;;;6.22;2.30;;;22.70;99.50;;;;;;4766403;30;20047;-91
2023/09/15 14:46:52;;;;;;;;;;;;;;;;;;;;;
2023/09/15 14:49:48;;;;;;;6.18;2.67;;;22.80;98.40;;;;;;4771883;30;20043;-91
2023/09/15 14:52:20;;;;;;;4.97;2.08;;;22.80;98.40;;;;;;4757518;30;20046;-90
2023/09/15 14:55:02;;;;;;;5.93;2.35;;;22.50;98.00;;;;;;4743757;30;20046;-91
2023/09/15 15:01:48;;;;;;;9.90;2.10;;;22.60;97.30;;;;;;4771698;30;20048;-92
2023/09/15 15:04:29;;;;;;;5.47;2.38;;;22.60;97.50;;;;;;4773099;30;20135;-92
2023/09/15 15:08:43;;;;;;;6.10;2.67;;;22.60;97.50;;;;;;4751202;30;20119;-95
2023/09/15 15:11:26;;;;;;;7.85;2.40;;;22.60;97.70;;;;;;4755813;30;20051;-92
2023/09/15 15:14:51;;;;;;;5.72;2.20;;;22.50;97.50;;;;;;4758024;30;20075;-95
2023/09/15 15:18:39;;;;;;;8.70;2.55;;;22.50;97.40;;;;;;4748994;30;20104;-94
2023/09/15 15:22:47;;;;;;;;;;;;;;;;;;;;;
2023/09/15 15:25:41;;;;;;;5.43;2.33;;;22.60;97.60;;;;;;4751282;30;20039;-92
2023/09/15 15:28:53;;;;;;;;;;;;;;;;;;;;;
2023/09/15 15:32:47;;;;;;;7.75;2.30;;;22.60;97.00;;;;;;4768738;30;20510;-93
2023/09/15 15:36:07;;;;;;;6.57;2.20;;;22.60;97.20;;;;;;4760576;30;20337;-92
2023/09/15 15:39:25;;;;;;;;;;;;;;;;;;;;;
2023/09/15 15:53:37;;;;;;;6.82;2.65;;;22.60;97.40;;;;;;4735670;30;20052;-89
2023/09/15 15:56:23;;;;;;;;;;;;;;;;;;;;;
2023/09/15 15:59:23;;;;;;;7.47;2.90;;;22.60;97.30;;;;;;4764397;30;20345;-88
2023/09/15 16:46:59;;;;;;;;;;;;;;;;;;;;;
2023/09/15 17:00:24;;;;;;;;;;;;;;;;;;;;;
2023/09/15 17:22:03;;;;;;;;;;;;;;;;;;;;;
2023/09/15 17:25:26;;;;;;;;;;;;;;;;;;;;;
2023/09/15 17:28:52;;;;;;;8.88;2.60;;;21.30;99.90;;;;;;4605711;31;20123;-95
2023/09/15 17:36:55;;;;;;;;;;;;;;;;;;;;;
2023/09/15 17:52:47;;;;;;;6.05;2.33;;;21.00;99.90;;;;;;4731584;30;20048;-96
2023/09/15 18:01:36;;;;;;;;;;;;;;;;;;;;;
